Главная страница
METAR-TAF:

METAR-TAF

Аэропорты :

Гибралтар, Гибралтар

широта: 36-09N, долгота: 005-21W, высота над уровнем моря: 5 м

Текущие метеонаблюдения

Эта сводка был подготовлена 42 минут назад, в 10:50 UTC
Ветер 14 Узел от южный
Температура 24°C
Влажность 74%
Давление 1017 hPa
Видимость 10 км и более

METAR: LXGB 251050Z AUTO 19014KT 9999 // NCD 24/19 Q1017

Время: 13:32 (11:32 UTC)

Прогноз

Эта сводка был подготовлена 4 часа и 5 минут назад, в 07:27 UTC
Прогноз действительный с 25-го 09 UTC до 25-го 18 UTC
Ветер 10 Узел от западный
Видимость 10 км и более
небольшая облачность на высоте 2000 фута
Вероятность 40% :
временами
С 25-го 09 UTC до 25-го 17 UTC
Ветер 14 Узел от южный-юго-западный

TAF: LXGB 250727Z 2509/2518 26010KT 9999 FEW020 PROB40 TEMPO 2509/2517 21014KT 520001

Метеонаблюдения и прогнозы для более 4000 аэропортов (сводки METAR и TAF).

Имеющиеся станции представлены на карте желтыми и красными точками.

Чтобы увидеть название станции, наведите на нее мышь.

Затем щелкните, чтобы увидеть метеонаблюдения и метеопрогнозы.

Управление картой: чтобы увеличить масштаб, щелкните зеленые кнопки с черным крестиком; чтобы уменьшить масштаб, щелкните зеленую кнопку с тире; для просмотра соседних карт щелкайте зеленые стрелки.


METAR-TAF: